Latest Weather Observations for Derby

IDW60801

Issued at 5:03 pm WST Saturday 16 December 2017 (issued every 30 minutes, with the page automatically refreshed every 10 minutes)

About weather observations | Map of weather stations | Latest weather observations for WA | Other Formats
Station Details ID: 003032 Name: DERBY AERO Lat: -17.37 Lon: 123.66 Height: 6.2 m
Data from the previous 72 hours. | See also: Recent months at Derby
Date/Time
WST
Temp
°C
App
Temp
°C
Dew
Point
°C
Rel
Hum
%
Delta-T
°C
Wind Press
QNH
hPa
Press
MSL
hPa
Rain since
9am
mm
Dir  Spd
km/h
Gust
km/h
Spd
kts
Gust
kts
16/05:00pm 33.4 32.8 24.3 59 6.4 NW 35 41 19 22 1004.7 1004.6 0.0
16/04:30pm 34.4 34.0 24.0 54 7.3 NW 33 41 18 22 1004.8 1004.7 0.0
16/04:00pm 36.0 35.3 23.2 47 8.9 NW 32 37 17 20 1004.6 1004.5 0.0
16/03:30pm 37.6 36.6 20.4 36 11.6 NW 26 35 14 19 1004.1 1004.0 0.0
16/03:00pm 38.3 36.9 18.7 31 13.0 NW 24 32 13 17 1004.1 1004.0 0.0
16/02:30pm 38.0 38.4 18.9 32 12.7 N 15 24 8 13 1004.8 1004.7 0.0
16/02:00pm 37.0 37.4 19.9 36 11.5 NNW 17 28 9 15 1005.3 1005.2 0.0
16/01:30pm 37.8 37.8 20.1 35 11.9 NNW 20 32 11 17 1005.8 1005.7 0.0
16/01:00pm 37.8 37.9 19.2 33 12.4 NW 17 28 9 15 1006.3 1006.2 0.0
16/12:30pm 37.3 36.9 18.8 33 12.2 NW 19 28 10 15 1006.7 1006.6 0.0
16/12:00pm 37.1 37.4 19.5 35 11.7 WNW 17 28 9 15 1007.3 1007.2 0.0
16/11:30am 36.5 37.9 20.3 38 10.9 NNW 13 22 7 12 1007.7 1007.6 0.0
16/11:00am 35.0 35.4 19.8 41 10.1 NW 17 24 9 13 1008.1 1008.0 0.0
16/10:30am 34.4 34.9 20.0 42 9.6 NNW 17 24 9 13 1008.6 1008.5 0.0
16/10:00am 34.2 35.0 20.6 45 9.1 NNW 17 20 9 11 1008.9 1008.8 0.0
16/09:30am 33.6 34.9 19.3 43 9.4 NW 11 20 6 11 1009.1 1009.0 0.0
16/09:00am 33.0 33.6 18.7 42 9.3 WNW 13 20 7 11 1009.4 1009.4 0.0
16/08:30am 32.4 32.7 19.6 46 8.4 WNW 17 24 9 13 1009.5 1009.5 0.0
16/08:00am 30.9 30.4 21.4 57 6.4 WNW 26 33 14 18 1009.3 1009.2 0.0
16/07:30am 30.0 30.1 21.9 62 5.5 W 24 32 13 17 1008.8 1008.7 0.0
16/07:00am 29.0 29.0 21.7 64 4.9 W 24 30 13 16 1008.6 1008.5 0.0
16/06:30am 27.9 28.6 22.2 71 3.8 WSW 22 28 12 15 1008.6 1008.5 0.0
16/06:00am 27.2 28.2 22.2 74 3.4 WSW 20 26 11 14 1008.2 1008.1 0.0
16/05:30am 26.4 27.9 21.2 73 3.4 SW 15 20 8 11 1008.2 1008.1 0.0
16/05:00am 25.7 27.4 19.3 67 4.1 WSW 9 11 5 6 1008.0 1007.9 0.0
16/04:30am 25.9 27.5 19.1 66 4.4 SW 9 11 5 6 1007.5 1007.4 0.0
16/04:00am 25.8 27.3 19.0 66 4.4 SW 9 11 5 6 1007.0 1006.9 0.0
16/03:30am 26.4 28.7 18.5 62 5.0 NW 4 9 2 5 1007.0 1006.9 0.0
16/03:00am 26.1 28.1 18.8 64 4.7 NNE 6 9 3 5 1006.8 1006.7 0.0
16/02:30am 25.8 27.8 19.2 67 4.2 NE 7 11 4 6 1006.8 1006.7 0.0
16/02:00am 25.4 27.1 19.3 69 3.9 N 9 13 5 7 1007.4 1007.3 0.0
16/01:30am 24.6 24.6 19.7 74 3.2 NE 19 28 10 15 1007.4 1007.3 0.0
16/01:00am 24.5 23.2 19.8 75 3.0 ENE 26 39 14 21 1008.1 1008.0 0.0
16/12:51am 25.1 23.4 19.9 73 3.4 ENE 28 48 15 26 1008.4 1008.3 0.0
16/12:30am 25.7 22.5 20.3 72 3.5 ENE 37 65 20 35 1008.4 1008.3 0.0
16/12:26am 27.0 26.3 20.3 66 4.4 ENE 24 57 13 31 1008.4 1008.3 0.0
16/12:25am 28.4 28.7 20.7 63 5.1 ENE 20 57 11 31 1008.4 1008.3 0.0
16/12:00am 29.8 32.6 21.5 61 5.6 E 9 11 5 6 1007.3 1007.2 0.0
 
Date/Time
WST
Temp
°C
App
Temp
°C
Dew
Point
°C
Rel
Hum
%
Delta-T
°C
Wind Press
QNH
hPa
Press
MSL
hPa
Rain since
9am
mm
Dir  Spd
km/h
Gust
km/h
Spd
kts
Gust
kts
15/11:30pm 29.5 31.3 21.2 61 5.5 W 13 17 7 9 1006.8 1006.7 0.0
15/11:00pm 29.4 30.6 22.1 65 4.9 W 19 22 10 12 1006.8 1006.7 0.0
15/10:30pm 31.6 32.9 21.7 55 6.7 W 17 20 9 11 1007.9 1007.8 0.0
15/10:00pm 31.6 33.8 23.2 61 5.8 W 17 22 9 12 1008.2 1008.1 0.0
15/09:30pm 31.8 34.2 23.6 62 5.7 NW 17 24 9 13 1008.4 1008.3 0.0
15/09:00pm 32.2 33.1 23.4 59 6.1 NW 24 30 13 16 1007.7 1007.6 0.0
15/08:30pm 32.5 34.7 24.3 62 5.7 NW 20 28 11 15 1007.1 1007.0 0.0
15/08:00pm 32.7 35.4 24.2 61 6.0 NW 17 19 9 10 1005.9 1005.8 0.0
15/07:30pm 32.9 36.3 26.7 70 4.5 NNW 22 28 12 15 1005.4 1005.3 0.0
15/07:00pm 32.7 34.8 26.5 70 4.5 NNW 28 39 15 21 1004.7 1004.6 0.0
15/06:30pm 33.1 34.8 25.9 66 5.1 N 28 35 15 19 1004.0 1003.9 0.0
15/06:00pm 33.5 35.3 26.0 65 5.4 N 28 41 15 22 1003.7 1003.6 0.0
15/05:30pm 34.1 35.0 25.2 59 6.3 NNW 30 39 16 21 1003.2 1003.1 0.0
15/05:00pm 36.7 35.9 20.9 39 10.7 N 26 32 14 17 1002.7 1002.6 0.0
15/04:30pm 37.6 37.5 20.0 36 11.8 N 20 28 11 15 1002.6 1002.5 0.0
15/04:00pm 38.2 37.2 17.6 30 13.5 NNW 19 24 10 13 1002.9 1002.8 0.0
15/03:30pm 38.3 38.3 20.1 34 12.3 NNW 20 30 11 16 1003.1 1003.0 0.0
15/03:00pm 38.9 37.3 16.5 26 14.5 NW 20 28 11 15 1003.2 1003.1 0.0
15/02:30pm 39.3 39.9 19.5 31 13.3 WNW 15 24 8 13 1003.6 1003.5 0.0
15/02:00pm 38.9 38.8 18.7 30 13.4 NW 17 28 9 15 1003.9 1003.8 0.0
15/01:30pm 37.9 38.9 21.1 37 11.4 NW 17 22 9 12 1004.1 1004.0 0.0
15/01:00pm 37.9 39.5 20.7 36 11.7 WNW 13 24 7 13 1004.6 1004.5 0.0
15/12:30pm 37.0 38.3 19.4 35 11.7 NW 11 20 6 11 1005.1 1005.0 0.0
15/12:00pm 36.5 38.3 21.9 42 10.0 NW 15 22 8 12 1005.6 1005.5 0.0
15/11:30am 36.0 38.8 23.6 48 8.7 NW 15 22 8 12 1006.2 1006.1 0.0
15/11:00am 34.8 36.9 22.5 48 8.5 NW 15 32 8 17 1006.7 1006.6 0.0
15/10:30am 34.5 36.7 23.2 51 7.8 NW 17 22 9 12 1007.2 1007.1 0.0
15/10:00am 34.1 37.0 23.8 55 7.2 WNW 15 22 8 12 1007.6 1007.5 0.0
15/09:30am 33.8 37.1 23.2 54 7.3 W 11 28 6 15 1008.0 1007.9 0.0
15/09:00am 32.8 35.6 23.7 58 6.3 W 15 28 8 15 1008.2 1008.1 0.0
15/08:30am 32.0 34.5 23.8 62 5.7 W 17 26 9 14 1008.3 1008.2 0.0
15/08:00am 31.3 33.7 24.2 66 5.0 W 19 26 10 14 1008.1 1008.0 0.0
15/07:30am 30.5 32.7 23.9 68 4.6 W 19 24 10 13 1007.9 1007.8 0.0
15/07:00am 30.1 32.0 23.8 69 4.4 W 20 28 11 15 1007.6 1007.5 0.0
15/06:30am 29.6 32.5 23.8 71 4.0 WNW 15 19 8 10 1007.3 1007.2 0.0
15/06:00am 28.6 33.1 23.7 75 3.4 NNW 6 9 3 5 1007.3 1007.2 0.0
15/05:30am 27.2 33.0 23.9 82 2.3 CALM 0 0 0 0 1007.0 1006.9 0.0
15/05:00am 26.8 31.1 23.3 81 2.4 N 6 7 3 4 1006.3 1006.2 0.0
15/04:30am 27.1 32.0 23.6 81 2.4 NNE 4 7 2 4 1006.2 1006.1 0.0
15/04:00am 27.4 32.6 23.6 80 2.6 NNE 2 7 1 4 1006.1 1006.0 0.0
15/03:30am 27.6 32.8 23.6 79 2.7 SE 2 7 1 4 1005.9 1005.8 0.0
15/03:00am 27.9 31.9 23.7 78 2.9 S 9 13 5 7 1005.8 1005.7 0.0
15/02:30am 28.0 31.4 24.0 79 2.8 SSW 13 17 7 9 1005.6 1005.5 0.0
15/02:00am 28.0 31.3 23.8 78 2.9 S 13 17 7 9 1005.4 1005.3 0.0
15/01:30am 28.4 31.4 24.0 77 3.0 SSW 15 19 8 10 1005.1 1005.0 0.0
15/01:00am 28.4 31.4 24.0 77 3.0 WSW 15 17 8 9 1004.7 1004.6 0.0
15/12:30am 28.5 31.3 23.6 75 3.4 WSW 15 20 8 11 1004.9 1004.8 0.0
15/12:00am 28.7 31.8 23.6 74 3.5 SW 13 20 7 11 1005.5 1005.4 0.0
 
Date/Time
WST
Temp
°C
App
Temp
°C
Dew
Point
°C
Rel
Hum
%
Delta-T
°C
Wind Press
QNH
hPa
Press
MSL
hPa
Rain since
9am
mm
Dir  Spd
km/h
Gust
km/h
Spd
kts
Gust
kts
14/11:30pm 28.9 31.1 23.3 72 3.8 SW 17 20 9 11 1005.8 1005.7 0.0
14/11:00pm 29.1 31.3 22.6 68 4.4 SW 15 20 8 11 1005.7 1005.6 0.0
14/10:30pm 29.5 31.1 22.2 65 4.9 SW 17 22 9 12 1006.1 1006.0 0.0
14/10:00pm 30.3 31.2 21.9 60 5.7 SW 20 28 11 15 1006.2 1006.1 0.0
14/09:30pm 31.0 31.8 21.8 58 6.2 SW 20 28 11 15 1006.0 1005.9 0.0
14/09:00pm 30.8 33.1 22.1 59 5.9 WSW 13 15 7 8 1005.8 1005.7 0.0
14/08:30pm 31.8 33.6 22.5 58 6.4 W 17 20 9 11 1005.5 1005.4 0.0
14/08:00pm 31.8 36.2 25.6 69 4.4 WNW 13 17 7 9 1005.2 1005.1 0.0
14/07:30pm 32.1 36.2 25.7 69 4.6 WNW 15 17 8 9 1004.9 1004.8 0.0
14/07:00pm 33.0 35.5 24.5 61 6.0 NNW 19 22 10 12 1004.7 1004.6 0.0
14/06:30pm 33.2 36.9 25.2 63 5.7 N 15 22 8 12 1004.4 1004.3 0.0
14/06:00pm 33.5 36.3 24.9 60 6.1 NNW 19 24 10 13 1003.9 1003.8 0.0
14/05:30pm 34.1 37.1 24.7 58 6.6 NNW 17 22 9 12 1003.7 1003.6 0.0
14/05:00pm 34.5 37.0 25.3 58 6.6 NNW 22 28 12 15 1003.5 1003.4 0.0
14/04:30pm 35.0 36.7 24.6 55 7.3 NNW 24 32 13 17 1003.4 1003.3 0.0
14/04:00pm 36.0 38.6 24.9 52 7.9 NNW 20 26 11 14 1003.5 1003.4 0.0
14/03:30pm 35.4 37.7 25.0 55 7.4 NW 22 28 12 15 1003.7 1003.6 0.0
14/03:00pm 36.6 39.1 23.8 47 9.0 WNW 17 24 9 13 1004.0 1003.9 0.0
14/02:30pm 35.7 38.1 23.0 48 8.8 WNW 15 22 8 12 1004.4 1004.3 0.0
14/02:00pm 35.9 38.2 23.5 48 8.7 WNW 17 24 9 13 1004.8 1004.7 0.0
14/01:30pm 33.7 36.6 23.1 54 7.3 WNW 13 19 7 10 1005.4 1005.3 0.0
14/01:00pm 33.3 36.9 23.0 54 7.1 WNW 9 13 5 7 1006.0 1005.9 0.0
14/12:30pm 32.7 37.2 23.6 58 6.3 WNW 6 9 3 5 1006.6 1006.5 0.0
14/12:00pm 32.3 35.9 23.8 61 5.9 NW 11 15 6 8 1006.8 1006.7 0.0
14/11:30am 32.2 35.8 23.7 61 5.9 WSW 11 19 6 10 1007.1 1007.0 0.0
14/11:00am 32.0 36.4 23.5 60 5.9 WSW 6 9 3 5 1007.8 1007.7 0.0
14/10:30am 31.7 36.4 24.0 63 5.4 E 6 9 3 5 1008.3 1008.2 0.0
14/10:00am 31.0 35.5 23.9 66 4.9 ENE 7 11 4 6 1008.7 1008.6 0.0
14/09:30am 30.4 35.4 24.8 72 3.9 NE 7 15 4 8 1008.9 1008.8 0.0
14/09:00am 29.6 34.4 25.1 77 3.2 W 9 13 5 7 1008.4 1008.3 0.0
14/08:30am 29.8 33.3 24.2 72 3.9 SW 13 17 7 9 1008.5 1008.4 0.0
14/08:00am 30.0 32.7 24.2 71 4.0 WSW 17 24 9 13 1008.7 1008.6 0.0
14/07:30am 30.0 34.6 24.2 71 4.0 SSW 7 11 4 6 1008.7 1008.6 0.0
14/07:00am 29.7 34.4 24.3 73 3.8 NNW 7 11 4 6 1008.2 1008.1 0.0
14/06:30am 29.6 34.0 24.5 74 3.6 NW 9 15 5 8 1007.7 1007.6 0.0
14/06:00am 28.6 34.7 24.4 78 2.9 CALM 0 0 0 0 1007.3 1007.2 0.0
14/05:30am 27.6 32.1 24.0 81 2.5 WNW 7 11 4 6 1007.0 1006.9 0.0
14/05:00am 27.0 30.1 22.8 78 2.9 NW 11 13 6 7 1006.4 1006.3 0.0
14/04:30am 27.1 31.2 22.9 78 2.9 WNW 6 7 3 4 1006.0 1005.9 0.0
14/04:00am 26.9 31.9 22.5 77 3.0 CALM 0 0 0 0 1005.6 1005.5 0.0
14/03:30am 27.4 32.2 22.1 73 3.6 CALM 0 0 0 0 1005.3 1005.2 0.0
14/03:00am 27.6 31.4 22.8 75 3.3 W 7 9 4 5 1005.0 1004.9 0.0
14/02:30am 28.0 31.5 22.2 70 3.9 WSW 7 9 4 5 1005.3 1005.2 0.0
14/02:00am 28.2 31.3 22.2 70 4.1 W 9 11 5 6 1005.4 1005.3 0.0
14/01:30am 28.7 31.8 22.2 68 4.4 W 9 9 5 5 1005.5 1005.4 0.0
14/01:00am 28.9 31.5 21.9 66 4.7 WSW 11 17 6 9 1005.3 1005.2 0.0
14/12:30am 29.1 31.6 21.8 64 4.9 W 11 13 6 7 1005.8 1005.7 0.0
14/12:00am 29.5 31.6 21.7 63 5.3 WSW 13 17 7 9 1005.8 1005.7 0.0
 
Date/Time
WST
Temp
°C
App
Temp
°C
Dew
Point
°C
Rel
Hum
%
Delta-T
°C
Wind Press
QNH
hPa
Press
MSL
hPa
Rain since
9am
mm
Dir  Spd
km/h
Gust
km/h
Spd
kts
Gust
kts
13/11:30pm 29.9 31.6 21.6 61 5.6 W 15 19 8 10 1006.3 1006.2 0.0
13/11:00pm 30.1 32.1 21.5 60 5.8 W 13 19 7 10 1006.4 1006.3 0.0
13/10:30pm 30.6 31.6 21.1 57 6.4 W 17 22 9 12 1006.9 1006.8 0.0
13/10:00pm 31.0 31.9 20.9 55 6.8 W 17 22 9 12 1007.1 1007.0 0.0
13/09:30pm 31.5 31.2 20.4 51 7.4 WSW 22 30 12 16 1007.0 1006.9 0.0
13/09:00pm 31.8 32.7 20.1 50 7.8 W 15 22 8 12 1006.8 1006.7 0.0
13/08:30pm 32.7 30.9 19.6 46 8.6 WSW 28 35 15 19 1006.4 1006.3 0.0
13/08:00pm 33.3 30.7 18.6 41 9.6 WSW 30 39 16 21 1005.8 1005.7 0.0
13/07:30pm 33.9 31.9 18.4 40 10.1 WSW 26 35 14 19 1005.3 1005.2 0.0
13/07:00pm 34.5 32.2 18.5 38 10.5 WSW 28 37 15 20 1004.9 1004.8 0.0
13/06:30pm 35.7 32.4 17.9 35 11.6 WSW 32 41 17 22 1004.6 1004.5 0.0
13/06:19pm 36.0 33.9 19.0 36 11.2 WSW 28 39 15 21 1004.5 1004.4 0.0
13/06:00pm 35.4 38.0 24.0 51 8.0 WNW 17 20 9 11 1004.2 1004.1 0.0
13/05:30pm 35.6 37.0 24.8 53 7.7 NW 26 33 14 18 1003.6 1003.5 0.0

Other Formats:

Comma delimited format used in spreadsheet applications
http://www.bom.gov.au/fwo/IDW60801/IDW60801.95205.axf

JavaScript Object Notation format (JSON) in row-major order
http://www.bom.gov.au/fwo/IDW60801/IDW60801.95205.json